createdAt,value
2019-05-12T00:00:39.246Z,9.30
2019-05-12T00:03:08.596Z,9.30
2019-05-12T00:05:38.400Z,9.20
2019-05-12T00:08:08.259Z,9.60
2019-05-12T00:10:38.787Z,9.40
2019-05-12T00:13:08.628Z,9.30
2019-05-12T00:15:38.517Z,9.30
2019-05-12T00:18:09.148Z,9.20
2019-05-12T00:20:38.812Z,9.50
2019-05-12T00:23:23.071Z,9.40
2019-05-12T00:25:39.542Z,9.50
2019-05-12T00:28:08.737Z,9.50
2019-05-12T00:30:40.950Z,9.60
2019-05-12T00:33:10.122Z,9.40
2019-05-12T00:35:39.589Z,9.40
2019-05-12T00:38:09.427Z,9.20
2019-05-12T00:40:39.599Z,9.20
2019-05-12T00:43:09.488Z,9.00
2019-05-12T00:45:39.150Z,9.20
2019-05-12T00:48:10.202Z,9.20
2019-05-12T00:50:39.539Z,9.40
2019-05-12T00:53:09.471Z,9.50
2019-05-12T00:55:38.881Z,9.50
2019-05-12T00:58:08.935Z,9.50
2019-05-12T01:00:40.700Z,9.40
2019-05-12T01:03:09.513Z,9.30
2019-05-12T01:05:38.825Z,9.50
2019-05-12T01:08:09.411Z,9.40
2019-05-12T01:10:39.439Z,9.40
2019-05-12T01:13:09.056Z,9.40
2019-05-12T01:15:38.850Z,9.50
2019-05-12T01:18:09.503Z,9.60
2019-05-12T01:20:39.335Z,9.50
2019-05-12T01:23:09.058Z,9.50
2019-05-12T01:25:39.697Z,9.30
2019-05-12T01:28:09.521Z,9.50
2019-05-12T01:30:39.383Z,9.60
2019-05-12T01:33:09.289Z,9.50
2019-05-12T01:35:39.261Z,9.50
2019-05-12T01:38:08.617Z,9.40
2019-05-12T01:40:39.758Z,9.30
2019-05-12T01:43:09.236Z,9.30
2019-05-12T01:45:38.617Z,9.30
2019-05-12T01:48:09.118Z,9.40
2019-05-12T01:50:39.112Z,9.40
2019-05-12T01:53:08.768Z,9.20
2019-05-12T01:55:38.992Z,9.40
2019-05-12T01:58:08.866Z,9.40
2019-05-12T02:00:39.144Z,9.50
2019-05-12T02:03:09.438Z,9.20
2019-05-12T02:05:41.728Z,9.30
2019-05-12T02:08:15.576Z,9.30
2019-05-12T02:10:44.810Z,9.50
2019-05-12T02:13:14.017Z,9.40
2019-05-12T02:15:43.417Z,9.50
2019-05-12T02:18:12.730Z,9.60
2019-05-12T02:20:41.961Z,9.40
2019-05-12T02:23:11.144Z,9.50
2019-05-12T02:25:40.357Z,9.40
2019-05-12T02:28:09.661Z,9.30
2019-05-12T02:30:41.445Z,9.40
2019-05-12T02:33:10.135Z,9.40
2019-05-12T02:35:39.285Z,9.40
2019-05-12T02:38:08.469Z,9.30
2019-05-12T02:40:37.812Z,9.40
2019-05-12T02:43:07.077Z,9.30
2019-05-12T02:45:36.492Z,9.40
2019-05-12T02:48:05.994Z,9.40
2019-05-12T02:50:37.894Z,9.30
2019-05-12T02:53:08.069Z,9.40
2019-05-12T02:55:38.011Z,9.50
2019-05-12T02:58:07.289Z,9.60
2019-05-12T03:00:37.191Z,9.50
2019-05-12T03:03:10.175Z,9.50
2019-05-12T03:05:44.266Z,9.60
2019-05-12T03:08:15.475Z,9.40
2019-05-12T03:10:48.039Z,9.60
2019-05-12T03:13:17.233Z,9.60
2019-05-12T03:15:46.382Z,9.30
2019-05-12T03:18:15.570Z,9.50
2019-05-12T03:20:45.510Z,9.30
2019-05-12T03:23:18.975Z,9.20
2019-05-12T03:25:45.989Z,9.50
2019-05-12T03:28:16.040Z,9.40
2019-05-12T03:30:48.383Z,9.50
2019-05-12T03:33:19.390Z,9.70
2019-05-12T03:35:53.198Z,9.60
2019-05-12T03:38:18.286Z,9.60
2019-05-12T03:40:47.546Z,9.80
2019-05-12T03:43:16.776Z,9.70
2019-05-12T03:45:45.993Z,9.60
2019-05-12T03:48:15.329Z,9.30
2019-05-12T03:50:46.026Z,9.30
2019-05-12T03:53:16.089Z,9.40
2019-05-12T03:55:46.841Z,9.50
2019-05-12T03:58:16.518Z,9.30
2019-05-12T04:00:45.721Z,9.50
2019-05-12T04:03:15.562Z,9.60
2019-05-12T04:05:45.623Z,9.70
2019-05-12T04:08:15.915Z,9.60
2019-05-12T04:10:46.027Z,9.50
2019-05-12T04:13:15.758Z,9.50
2019-05-12T04:15:45.782Z,9.50
2019-05-12T04:18:16.292Z,9.50
2019-05-12T04:20:45.953Z,9.40
2019-05-12T04:23:15.657Z,9.20
2019-05-12T04:25:52.134Z,9.10
2019-05-12T04:28:16.024Z,9.10
2019-05-12T04:30:45.206Z,9.00
2019-05-12T04:33:15.534Z,8.90
2019-05-12T04:35:45.440Z,9.00
2019-05-12T04:38:15.337Z,9.20
2019-05-12T04:40:45.529Z,9.20
2019-05-12T04:43:15.280Z,9.10
2019-05-12T04:45:45.340Z,8.70
2019-05-12T04:48:20.291Z,8.80
2019-05-12T04:50:46.264Z,8.90
2019-05-12T04:53:15.397Z,8.80
2019-05-12T04:55:44.885Z,8.80
2019-05-12T04:58:15.620Z,8.80
2019-05-12T05:00:45.796Z,8.90
2019-05-12T05:03:15.319Z,9.00
2019-05-12T05:05:44.826Z,8.90
2019-05-12T05:08:19.168Z,9.10
2019-05-12T05:10:45.561Z,9.00
2019-05-12T05:13:15.249Z,9.10
2019-05-12T05:15:45.001Z,9.10
2019-05-12T05:18:14.391Z,9.00
2019-05-12T05:20:43.910Z,9.20
2019-05-12T05:23:14.315Z,9.20
2019-05-12T05:25:43.683Z,9.10
2019-05-12T05:28:14.573Z,9.30
2019-05-12T05:30:44.257Z,9.20
2019-05-12T05:33:14.540Z,9.10
2019-05-12T05:35:44.134Z,9.10
2019-05-12T05:38:19.210Z,8.90
2019-05-12T05:40:45.991Z,8.90
2019-05-12T05:43:18.650Z,9.00
2019-05-12T05:45:46.296Z,9.10
2019-05-12T05:48:15.487Z,9.10
2019-05-12T05:50:44.694Z,9.10
2019-05-12T05:53:19.392Z,9.20
2019-05-12T05:55:45.211Z,9.20
2019-05-12T05:58:15.467Z,9.10
2019-05-12T06:00:44.835Z,9.20
2019-05-12T06:03:22.634Z,9.20
2019-05-12T06:05:45.005Z,9.40
2019-05-12T06:08:16.201Z,9.20
2019-05-12T06:10:45.996Z,8.90
2019-05-12T06:13:15.212Z,9.10
2019-05-12T06:15:44.373Z,9.20
2019-05-12T06:18:13.738Z,9.00
2019-05-12T06:20:43.782Z,9.00
2019-05-12T06:23:14.779Z,8.80
2019-05-12T06:25:47.470Z,9.00
2019-05-12T06:28:14.923Z,9.00
2019-05-12T06:30:47.010Z,9.00
2019-05-12T06:33:14.969Z,9.10
2019-05-12T06:35:45.505Z,9.10
2019-05-12T06:38:14.920Z,9.10
2019-05-12T06:40:45.308Z,9.20
2019-05-12T06:43:15.037Z,9.00
2019-05-12T06:45:45.714Z,9.10
2019-05-12T06:48:19.362Z,8.90
2019-05-12T06:50:46.497Z,8.90
2019-05-12T06:53:20.056Z,8.90
2019-05-12T06:55:46.584Z,8.90
2019-05-12T06:58:26.287Z,9.00
2019-05-12T07:00:46.765Z,9.10
2019-05-12T07:03:19.553Z,9.40
2019-05-12T07:05:46.809Z,9.40
2019-05-12T07:08:20.118Z,9.40
2019-05-12T07:10:51.879Z,9.70
2019-05-12T07:13:23.020Z,9.90
2019-05-12T07:15:48.644Z,10.10
2019-05-12T07:18:25.289Z,10.40
2019-05-12T07:20:49.861Z,10.50
2019-05-12T07:23:19.547Z,10.20
2019-05-12T07:25:50.362Z,9.80
2019-05-12T07:28:19.561Z,9.90
2019-05-12T07:30:49.332Z,9.90
2019-05-12T07:33:18.780Z,10.20
2019-05-12T07:35:53.282Z,10.40
2019-05-12T07:38:25.629Z,10.50
2019-05-12T07:40:53.898Z,10.50
2019-05-12T07:43:24.907Z,10.70
2019-05-12T07:46:02.210Z,10.80
2019-05-12T07:48:25.792Z,11.60
2019-05-12T07:50:58.435Z,11.40
2019-05-12T07:53:26.431Z,11.30
2019-05-12T07:55:55.564Z,11.30
2019-05-12T07:58:24.933Z,11.40
2019-05-12T08:01:02.497Z,11.90
2019-05-12T08:03:25.381Z,11.70
2019-05-12T08:05:57.339Z,12.00
2019-05-12T08:08:25.582Z,12.50
2019-05-12T08:10:55.973Z,12.80
2019-05-12T08:13:25.537Z,12.80
2019-05-12T08:15:56.435Z,12.60
2019-05-12T08:18:30.785Z,12.40
2019-05-12T08:20:59.903Z,12.60
2019-05-12T08:23:27.769Z,13.10
2019-05-12T08:25:56.918Z,13.10
2019-05-12T08:28:34.995Z,13.40
2019-05-12T08:30:57.384Z,13.10
2019-05-12T08:33:26.602Z,13.40
2019-05-12T08:35:55.740Z,13.80
2019-05-12T08:38:25.161Z,13.80
2019-05-12T08:40:54.618Z,13.40
2019-05-12T08:43:24.251Z,13.40
2019-05-12T08:45:53.784Z,13.10
2019-05-12T08:48:24.983Z,13.10
2019-05-12T08:50:54.786Z,12.60
2019-05-12T08:53:26.229Z,12.40
2019-05-12T08:55:55.324Z,12.20
2019-05-12T08:58:31.639Z,12.10
2019-05-12T09:00:56.009Z,11.90
2019-05-12T09:03:29.809Z,11.70
2019-05-12T09:05:56.424Z,12.00
2019-05-12T09:08:26.417Z,12.20
2019-05-12T09:10:55.753Z,12.70
2019-05-12T09:13:24.955Z,13.70
2019-05-12T09:15:54.258Z,14.00
2019-05-12T09:18:28.497Z,14.50
2019-05-12T09:20:55.738Z,14.30
2019-05-12T09:23:25.185Z,14.20
2019-05-12T09:25:57.131Z,13.80
2019-05-12T09:28:25.467Z,13.30
2019-05-12T09:30:54.741Z,13.20
2019-05-12T09:33:29.530Z,13.30
2019-05-12T09:35:54.914Z,13.30
2019-05-12T09:38:26.435Z,13.60
2019-05-12T09:41:00.783Z,14.30
2019-05-12T09:43:26.807Z,14.40
2019-05-12T09:45:56.560Z,14.30
2019-05-12T09:48:25.950Z,14.10
2019-05-12T09:51:00.397Z,13.70
2019-05-12T09:53:26.128Z,13.30
2019-05-12T09:55:58.411Z,12.90
2019-05-12T09:58:27.950Z,12.70
2019-05-12T10:00:57.319Z,12.50
2019-05-12T10:03:30.868Z,12.40
2019-05-12T10:05:57.596Z,12.40
2019-05-12T10:08:29.226Z,12.40
2019-05-12T10:10:57.627Z,12.60
2019-05-12T10:13:30.113Z,13.50
2019-05-12T10:15:58.778Z,14.30
2019-05-12T10:18:29.382Z,14.80
2019-05-12T10:20:58.578Z,15.10
2019-05-12T10:23:27.839Z,15.20
2019-05-12T10:26:01.443Z,15.80
2019-05-12T10:28:27.920Z,15.30
2019-05-12T10:30:57.311Z,15.50
2019-05-12T10:33:26.474Z,15.30
2019-05-12T10:35:59.426Z,14.60
2019-05-12T10:38:26.686Z,14.30
2019-05-12T10:40:55.989Z,13.70
2019-05-12T10:43:25.279Z,13.60
2019-05-12T10:45:54.505Z,13.40
2019-05-12T10:48:23.728Z,13.40
2019-05-12T10:50:53.553Z,13.10
2019-05-12T10:53:23.647Z,12.90
2019-05-12T10:55:54.227Z,13.20
2019-05-12T10:58:24.838Z,13.80
2019-05-12T11:00:58.926Z,14.10
2019-05-12T11:03:25.502Z,14.90
2019-05-12T11:06:02.150Z,15.20
2019-05-12T11:08:25.561Z,15.00
2019-05-12T11:10:57.677Z,14.70
2019-05-12T11:13:25.664Z,14.40
2019-05-12T11:15:54.999Z,14.00
2019-05-12T11:18:30.233Z,13.80
2019-05-12T11:20:55.196Z,13.80
2019-05-12T11:23:24.618Z,14.00
2019-05-12T11:25:54.116Z,14.10
2019-05-12T11:28:24.436Z,14.40
2019-05-12T11:30:54.222Z,14.60
2019-05-12T11:33:23.884Z,14.30
2019-05-12T11:35:54.163Z,14.40
2019-05-12T11:38:24.401Z,14.10
2019-05-12T11:40:54.008Z,13.80
2019-05-12T11:43:24.851Z,14.60
2019-05-12T11:45:54.320Z,15.00
2019-05-12T11:48:23.795Z,15.70
2019-05-12T11:50:54.546Z,15.30
2019-05-12T11:53:30.370Z,15.50
2019-05-12T11:55:55.160Z,15.30
2019-05-12T11:58:24.329Z,14.80
2019-05-12T12:00:58.549Z,14.70
2019-05-12T12:03:26.316Z,14.50
2019-05-12T12:05:55.512Z,14.20
2019-05-12T12:08:26.401Z,14.00
2019-05-12T12:10:55.604Z,13.90
2019-05-12T12:13:29.723Z,14.70
2019-05-12T12:16:00.710Z,15.30
2019-05-12T12:18:26.961Z,15.70
2019-05-12T12:21:02.766Z,15.50
2019-05-12T12:23:27.107Z,15.30
2019-05-12T12:25:56.469Z,15.00
2019-05-12T12:28:25.701Z,14.70
2019-05-12T12:30:58.892Z,14.60
2019-05-12T12:33:25.973Z,15.20
2019-05-12T12:36:00.606Z,15.30
2019-05-12T12:38:26.426Z,15.20
2019-05-12T12:40:55.602Z,15.30
2019-05-12T12:43:25.089Z,14.90
2019-05-12T12:45:59.617Z,14.60
2019-05-12T12:48:29.939Z,14.70
2019-05-12T12:50:59.576Z,15.00
2019-05-12T12:53:28.839Z,14.90
2019-05-12T12:55:58.604Z,14.70
2019-05-12T12:58:31.367Z,14.80
2019-05-12T13:00:59.586Z,15.20
2019-05-12T13:03:30.073Z,15.50
2019-05-12T13:05:59.448Z,16.00
2019-05-12T13:08:28.993Z,16.00
2019-05-12T13:10:58.164Z,16.00
2019-05-12T13:13:27.424Z,16.20
2019-05-12T13:15:56.705Z,16.00
2019-05-12T13:18:32.936Z,15.50
2019-05-12T13:20:58.107Z,15.10
2019-05-12T13:23:38.111Z,14.70
2019-05-12T13:25:58.510Z,14.70
2019-05-12T13:28:27.819Z,14.60
2019-05-12T13:31:08.118Z,15.10
2019-05-12T13:33:28.000Z,15.50
2019-05-12T13:35:57.618Z,16.10
2019-05-12T13:38:30.494Z,16.00
2019-05-12T13:40:57.865Z,15.50
2019-05-12T13:43:27.076Z,15.20
2019-05-12T13:45:56.241Z,15.20
2019-05-12T13:48:25.477Z,14.80
2019-05-12T13:51:07.537Z,14.70
2019-05-12T13:53:25.632Z,15.10
2019-05-12T13:55:54.793Z,15.40
2019-05-12T13:58:28.183Z,15.80
2019-05-12T14:01:10.527Z,16.10
2019-05-12T14:03:27.919Z,15.70
2019-05-12T14:05:56.976Z,15.30
2019-05-12T14:08:26.184Z,15.20
2019-05-12T14:10:59.385Z,14.90
2019-05-12T14:13:26.432Z,14.70
2019-05-12T14:15:55.600Z,14.70
2019-05-12T14:18:24.766Z,15.30
2019-05-12T14:20:58.842Z,15.60
2019-05-12T14:23:25.032Z,15.70
2019-05-12T14:25:54.415Z,15.80
2019-05-12T14:28:23.771Z,15.40
2019-05-12T14:30:54.433Z,15.30
2019-05-12T14:33:24.599Z,15.50
2019-05-12T14:35:54.280Z,15.70
2019-05-12T14:38:28.385Z,15.80
2019-05-12T14:40:54.435Z,16.00
2019-05-12T14:43:24.172Z,15.80
2019-05-12T14:45:54.117Z,15.80
2019-05-12T14:48:23.616Z,15.70
2019-05-12T14:50:53.506Z,15.70
2019-05-12T14:53:23.687Z,15.80
2019-05-12T14:55:53.706Z,16.10
2019-05-12T14:58:23.763Z,16.10
2019-05-12T15:00:56.363Z,16.20
2019-05-12T15:03:24.387Z,16.20
2019-05-12T15:05:54.556Z,16.00
2019-05-12T15:08:35.719Z,15.70
2019-05-12T15:10:55.121Z,15.50
2019-05-12T15:13:24.376Z,15.60
2019-05-12T15:15:58.170Z,15.60
2019-05-12T15:18:24.626Z,15.40
2019-05-12T15:20:54.447Z,15.40
2019-05-12T15:23:33.055Z,15.50
2019-05-12T15:25:55.185Z,15.40
2019-05-12T15:28:24.384Z,15.40
2019-05-12T15:30:54.234Z,15.30
2019-05-12T15:33:24.347Z,15.50
2019-05-12T15:35:54.742Z,15.40
2019-05-12T15:38:24.223Z,15.30
2019-05-12T15:40:53.899Z,15.20
2019-05-12T15:43:24.423Z,15.40
2019-05-12T15:45:55.226Z,15.50
2019-05-12T15:48:26.023Z,15.40
2019-05-12T15:50:59.556Z,15.40
2019-05-12T15:53:27.178Z,15.40
2019-05-12T15:55:56.589Z,15.20
2019-05-12T15:58:25.814Z,15.10
2019-05-12T16:00:57.819Z,15.10
2019-05-12T16:03:26.558Z,14.90
2019-05-12T16:06:01.173Z,14.80
2019-05-12T16:08:27.240Z,14.90
2019-05-12T16:10:56.697Z,15.00
2019-05-12T16:13:26.039Z,14.90
2019-05-12T16:16:02.842Z,15.10
2019-05-12T16:18:26.702Z,15.00
2019-05-12T16:20:58.863Z,15.00
2019-05-12T16:23:30.073Z,14.90
2019-05-12T16:26:01.315Z,14.90
2019-05-12T16:28:28.903Z,15.10
2019-05-12T16:30:58.905Z,15.10
2019-05-12T16:33:29.088Z,14.90
2019-05-12T16:35:59.907Z,14.90
2019-05-12T16:38:29.142Z,14.80
2019-05-12T16:40:58.415Z,14.60
2019-05-12T16:43:29.290Z,14.40
2019-05-12T16:45:58.584Z,14.40
2019-05-12T16:48:32.927Z,14.20
2019-05-12T16:50:58.736Z,14.10
2019-05-12T16:53:29.854Z,14.10
2019-05-12T16:55:59.001Z,14.10
2019-05-12T16:58:33.130Z,14.20
2019-05-12T17:00:59.057Z,14.30
2019-05-12T17:03:28.226Z,14.30
2019-05-12T17:05:57.910Z,14.30
2019-05-12T17:08:27.388Z,14.20
2019-05-12T17:11:09.013Z,14.20
2019-05-12T17:13:27.498Z,14.30
2019-05-12T17:16:00.095Z,14.30
2019-05-12T17:18:27.684Z,14.40
2019-05-12T17:20:56.868Z,14.40
2019-05-12T17:23:26.041Z,14.40
2019-05-12T17:25:55.196Z,14.30
2019-05-12T17:28:24.483Z,14.30
2019-05-12T17:30:54.328Z,14.30
2019-05-12T17:33:27.578Z,14.30
2019-05-12T17:35:54.957Z,14.30
2019-05-12T17:38:25.295Z,14.30
2019-05-12T17:40:58.919Z,14.30
2019-05-12T17:43:25.938Z,14.30
2019-05-12T17:45:59.542Z,14.40
2019-05-12T17:48:26.127Z,14.40
2019-05-12T17:50:55.395Z,14.30
2019-05-12T17:53:24.582Z,14.30
2019-05-12T17:55:56.193Z,14.40
2019-05-12T17:58:29.681Z,14.30
2019-05-12T18:00:55.933Z,14.00
2019-05-12T18:03:25.808Z,14.00
2019-05-12T18:05:55.497Z,13.80
2019-05-12T18:08:32.924Z,13.70
2019-05-12T18:10:55.609Z,13.70
2019-05-12T18:13:27.926Z,13.60
2019-05-12T18:15:55.760Z,13.60
2019-05-12T18:18:32.817Z,13.60
2019-05-12T18:20:57.886Z,13.60
2019-05-12T18:23:30.354Z,13.50
2019-05-12T18:26:03.076Z,13.40
2019-05-12T18:28:29.531Z,13.40
2019-05-12T18:30:59.043Z,13.30
2019-05-12T18:33:33.894Z,13.20
2019-05-12T18:35:59.166Z,13.20
2019-05-12T18:38:31.605Z,13.10
2019-05-12T18:40:59.298Z,13.10
2019-05-12T18:43:28.571Z,13.20
2019-05-12T18:46:05.075Z,13.00
2019-05-12T18:48:28.738Z,13.20
2019-05-12T18:51:04.995Z,13.10
2019-05-12T18:53:31.884Z,13.00
2019-05-12T18:56:00.079Z,13.00
2019-05-12T18:58:31.115Z,13.20
2019-05-12T19:01:00.216Z,13.00
2019-05-12T19:03:37.499Z,12.80
2019-05-12T19:06:00.428Z,13.00
2019-05-12T19:08:29.622Z,12.90
2019-05-12T19:10:58.792Z,13.00
2019-05-12T19:13:28.230Z,12.90
2019-05-12T19:16:02.374Z,12.80
2019-05-12T19:18:32.534Z,12.80
2019-05-12T19:20:59.640Z,12.60
2019-05-12T19:23:34.893Z,12.60
2019-05-12T19:25:59.988Z,12.30
2019-05-12T19:28:29.181Z,12.20
2019-05-12T19:31:00.976Z,12.00
2019-05-12T19:33:29.533Z,12.00
2019-05-12T19:36:04.297Z,11.70
2019-05-12T19:38:29.690Z,11.60
2019-05-12T19:41:00.732Z,11.60
2019-05-12T19:43:29.820Z,11.50
2019-05-12T19:46:03.345Z,11.30
2019-05-12T19:48:35.088Z,11.20
2019-05-12T19:51:15.948Z,10.80
2019-05-12T19:53:33.227Z,10.90
2019-05-12T19:56:03.855Z,10.90
2019-05-12T19:58:34.040Z,10.80
2019-05-12T20:01:03.743Z,10.50
2019-05-12T20:03:33.557Z,10.50
2019-05-12T20:06:02.964Z,10.40
2019-05-12T20:08:32.210Z,10.50
2019-05-12T20:11:03.639Z,10.10
2019-05-12T20:13:36.064Z,10.30
2019-05-12T20:16:03.474Z,10.30
2019-05-12T20:18:36.092Z,10.40
2019-05-12T20:21:04.414Z,10.20
2019-05-12T20:23:34.060Z,10.10
2019-05-12T20:26:03.988Z,10.30
2019-05-12T20:28:34.598Z,10.10
2019-05-12T20:31:06.108Z,9.80
2019-05-12T20:33:35.450Z,10.10
2019-05-12T20:36:04.830Z,10.20
2019-05-12T20:38:36.613Z,10.10
2019-05-12T20:41:05.204Z,10.10
2019-05-12T20:43:38.116Z,10.10
2019-05-12T20:46:05.689Z,10.00
2019-05-12T20:48:34.861Z,10.10
2019-05-12T20:51:08.779Z,10.10
2019-05-12T20:53:36.648Z,10.20
2019-05-12T20:56:06.108Z,10.10
2019-05-12T20:58:43.014Z,10.10
2019-05-12T21:01:06.148Z,10.00
2019-05-12T21:03:39.812Z,10.10
2019-05-12T21:06:06.330Z,9.90
2019-05-12T21:08:35.777Z,9.80
2019-05-12T21:11:04.969Z,10.00
2019-05-12T21:13:34.573Z,10.10
2019-05-12T21:16:15.692Z,10.00
2019-05-12T21:18:47.117Z,9.90
2019-05-12T21:21:05.905Z,9.90
2019-05-12T21:23:35.126Z,10.00
2019-05-12T21:26:04.403Z,10.10
2019-05-12T21:28:37.126Z,9.90
2019-05-12T21:31:04.704Z,9.80
2019-05-12T21:33:39.962Z,9.80
2019-05-12T21:36:04.978Z,9.50
2019-05-12T21:38:34.201Z,9.30
2019-05-12T21:41:07.850Z,9.10
2019-05-12T21:43:34.483Z,9.10
2019-05-12T21:46:07.746Z,9.10
2019-05-12T21:48:34.573Z,9.10
2019-05-12T21:51:04.258Z,9.30
2019-05-12T21:53:34.507Z,9.30
2019-05-12T21:56:05.566Z,9.30
2019-05-12T21:58:35.084Z,9.10
2019-05-12T22:01:07.693Z,9.20
2019-05-12T22:03:37.017Z,9.00
2019-05-12T22:06:15.214Z,9.00
2019-05-12T22:08:37.269Z,8.90
2019-05-12T22:11:11.281Z,8.70
2019-05-12T22:13:37.680Z,8.50
2019-05-12T22:16:07.048Z,8.90
2019-05-12T22:18:36.386Z,8.80
2019-05-12T22:21:06.954Z,8.70
2019-05-12T22:23:36.524Z,8.80
2019-05-12T22:26:06.001Z,9.20
2019-05-12T22:28:40.561Z,8.60
2019-05-12T22:31:06.429Z,9.00
2019-05-12T22:33:40.381Z,8.70
2019-05-12T22:36:14.646Z,8.60
2019-05-12T22:38:37.980Z,8.60
2019-05-12T22:41:07.144Z,8.80
2019-05-12T22:43:40.840Z,8.80
2019-05-12T22:46:07.265Z,8.80
2019-05-12T22:48:40.468Z,8.40
2019-05-12T22:51:17.438Z,8.60
2019-05-12T22:53:38.379Z,8.80
2019-05-12T22:56:12.332Z,8.80
2019-05-12T22:58:38.608Z,8.80
2019-05-12T23:01:07.738Z,8.80
2019-05-12T23:03:36.998Z,8.90
2019-05-12T23:06:20.192Z,8.70
2019-05-12T23:08:38.905Z,8.80
2019-05-12T23:11:08.071Z,9.00
2019-05-12T23:13:40.977Z,9.10
2019-05-12T23:16:08.292Z,9.20
2019-05-12T23:18:37.468Z,8.90
2019-05-12T23:21:13.534Z,8.90
2019-05-12T23:23:37.597Z,8.70
2019-05-12T23:26:06.988Z,9.00
2019-05-12T23:28:40.583Z,9.00
2019-05-12T23:31:07.821Z,8.90
2019-05-12T23:33:36.973Z,9.00
2019-05-12T23:36:09.650Z,9.10
2019-05-12T23:38:37.120Z,9.10
2019-05-12T23:41:06.364Z,8.90
2019-05-12T23:43:35.513Z,8.80
2019-05-12T23:46:04.682Z,8.90
2019-05-12T23:48:33.842Z,9.00
2019-05-12T23:51:03.854Z,8.90
2019-05-12T23:53:33.895Z,8.80
2019-05-12T23:56:03.874Z,8.70
2019-05-12T23:58:33.456Z,8.90
